sensor_id;sensor_type;location;lat;lon;timestamp;P1;durP1;ratioP1;P2;durP2;ratioP2
14526;SDS011;7350;51.208;4.238;2022-10-17T00:00:48;9.85;;;7.32;;
14526;SDS011;7350;51.208;4.238;2022-10-17T00:03:15;10.82;;;8.15;;
14526;SDS011;7350;51.208;4.238;2022-10-17T00:05:43;10.23;;;7.85;;
14526;SDS011;7350;51.208;4.238;2022-10-17T00:08:13;10.25;;;8.23;;
14526;SDS011;7350;51.208;4.238;2022-10-17T00:10:41;7.80;;;7.00;;
14526;SDS011;7350;51.208;4.238;2022-10-17T00:13:08;9.55;;;8.20;;
14526;SDS011;7350;51.208;4.238;2022-10-17T00:15:36;9.60;;;8.27;;
14526;SDS011;7350;51.208;4.238;2022-10-17T00:18:03;9.55;;;8.35;;
14526;SDS011;7350;51.208;4.238;2022-10-17T00:20:30;10.90;;;8.32;;
14526;SDS011;7350;51.208;4.238;2022-10-17T00:22:59;12.07;;;8.95;;
14526;SDS011;7350;51.208;4.238;2022-10-17T00:25:28;11.93;;;8.20;;
14526;SDS011;7350;51.208;4.238;2022-10-17T00:27:54;10.65;;;8.35;;
14526;SDS011;7350;51.208;4.238;2022-10-17T00:30:21;10.50;;;8.13;;
14526;SDS011;7350;51.208;4.238;2022-10-17T00:32:48;9.98;;;8.00;;
14526;SDS011;7350;51.208;4.238;2022-10-17T00:35:15;13.27;;;10.13;;
14526;SDS011;7350;51.208;4.238;2022-10-17T00:37:42;13.55;;;8.95;;
14526;SDS011;7350;51.208;4.238;2022-10-17T00:40:09;10.82;;;8.65;;
14526;SDS011;7350;51.208;4.238;2022-10-17T00:42:38;9.82;;;8.93;;
14526;SDS011;7350;51.208;4.238;2022-10-17T00:45:07;9.73;;;8.60;;
14526;SDS011;7350;51.208;4.238;2022-10-17T00:47:44;10.93;;;9.00;;
14526;SDS011;7350;51.208;4.238;2022-10-17T00:50:14;9.35;;;8.43;;
14526;SDS011;7350;51.208;4.238;2022-10-17T00:52:41;9.60;;;8.20;;
14526;SDS011;7350;51.208;4.238;2022-10-17T00:55:10;15.38;;;8.75;;
14526;SDS011;7350;51.208;4.238;2022-10-17T00:57:41;10.50;;;9.10;;
14526;SDS011;7350;51.208;4.238;2022-10-17T01:00:10;9.20;;;8.27;;
14526;SDS011;7350;51.208;4.238;2022-10-17T01:02:38;16.55;;;9.18;;
14526;SDS011;7350;51.208;4.238;2022-10-17T01:05:06;10.60;;;8.23;;
14526;SDS011;7350;51.208;4.238;2022-10-17T01:07:34;9.13;;;8.18;;
14526;SDS011;7350;51.208;4.238;2022-10-17T01:10:03;9.20;;;8.30;;
14526;SDS011;7350;51.208;4.238;2022-10-17T01:12:35;10.32;;;8.27;;
14526;SDS011;7350;51.208;4.238;2022-10-17T01:15:17;9.05;;;8.15;;
14526;SDS011;7350;51.208;4.238;2022-10-17T01:17:54;9.55;;;8.18;;
14526;SDS011;7350;51.208;4.238;2022-10-17T01:23:53;11.25;;;8.55;;
14526;SDS011;7350;51.208;4.238;2022-10-17T01:26:46;24.63;;;10.27;;
14526;SDS011;7350;51.208;4.238;2022-10-17T01:29:33;10.57;;;8.80;;
14526;SDS011;7350;51.208;4.238;2022-10-17T01:32:22;9.82;;;8.82;;
14526;SDS011;7350;51.208;4.238;2022-10-17T01:34:56;9.35;;;8.43;;
14526;SDS011;7350;51.208;4.238;2022-10-17T01:37:28;9.35;;;8.45;;
14526;SDS011;7350;51.208;4.238;2022-10-17T01:39:59;13.60;;;8.25;;
14526;SDS011;7350;51.208;4.238;2022-10-17T01:42:33;13.88;;;8.40;;
14526;SDS011;7350;51.208;4.238;2022-10-17T01:45:05;12.52;;;9.45;;
14526;SDS011;7350;51.208;4.238;2022-10-17T01:47:39;10.85;;;8.88;;
14526;SDS011;7350;51.208;4.238;2022-10-17T01:50:09;9.63;;;8.43;;
14526;SDS011;7350;51.208;4.238;2022-10-17T01:52:43;9.52;;;8.63;;
14526;SDS011;7350;51.208;4.238;2022-10-17T01:55:14;11.35;;;8.95;;
14526;SDS011;7350;51.208;4.238;2022-10-17T01:57:48;12.00;;;8.43;;
14526;SDS011;7350;51.208;4.238;2022-10-17T02:00:20;11.50;;;9.02;;
14526;SDS011;7350;51.208;4.238;2022-10-17T02:02:50;12.30;;;9.20;;
14526;SDS011;7350;51.208;4.238;2022-10-17T02:05:21;12.57;;;8.52;;
14526;SDS011;7350;51.208;4.238;2022-10-17T02:07:53;11.02;;;9.52;;
14526;SDS011;7350;51.208;4.238;2022-10-17T02:10:21;10.55;;;8.90;;
14526;SDS011;7350;51.208;4.238;2022-10-17T02:12:57;9.75;;;8.52;;
14526;SDS011;7350;51.208;4.238;2022-10-17T02:15:38;11.18;;;8.75;;
14526;SDS011;7350;51.208;4.238;2022-10-17T02:21:38;11.90;;;9.30;;
14526;SDS011;7350;51.208;4.238;2022-10-17T02:24:12;13.77;;;9.02;;
14526;SDS011;7350;51.208;4.238;2022-10-17T02:26:46;11.25;;;8.15;;
14526;SDS011;7350;51.208;4.238;2022-10-17T02:29:19;11.60;;;9.30;;
14526;SDS011;7350;51.208;4.238;2022-10-17T02:31:50;11.45;;;8.82;;
14526;SDS011;7350;51.208;4.238;2022-10-17T02:34:23;11.63;;;8.73;;
14526;SDS011;7350;51.208;4.238;2022-10-17T02:36:55;12.25;;;9.00;;
14526;SDS011;7350;51.208;4.238;2022-10-17T02:39:25;9.98;;;8.95;;
14526;SDS011;7350;51.208;4.238;2022-10-17T02:41:54;11.55;;;9.23;;
14526;SDS011;7350;51.208;4.238;2022-10-17T02:44:24;11.73;;;9.55;;
14526;SDS011;7350;51.208;4.238;2022-10-17T02:46:54;10.73;;;9.43;;
14526;SDS011;7350;51.208;4.238;2022-10-17T02:49:30;11.65;;;8.63;;
14526;SDS011;7350;51.208;4.238;2022-10-17T02:52:02;11.65;;;9.90;;
14526;SDS011;7350;51.208;4.238;2022-10-17T02:54:36;10.88;;;9.27;;
14526;SDS011;7350;51.208;4.238;2022-10-17T02:57:09;12.73;;;8.70;;
14526;SDS011;7350;51.208;4.238;2022-10-17T02:59:42;11.88;;;9.07;;
14526;SDS011;7350;51.208;4.238;2022-10-17T03:02:10;13.02;;;9.23;;
14526;SDS011;7350;51.208;4.238;2022-10-17T03:04:39;10.98;;;8.70;;
14526;SDS011;7350;51.208;4.238;2022-10-17T03:07:08;12.30;;;8.50;;
14526;SDS011;7350;51.208;4.238;2022-10-17T03:09:35;10.73;;;9.07;;
14526;SDS011;7350;51.208;4.238;2022-10-17T03:12:02;13.32;;;10.48;;
14526;SDS011;7350;51.208;4.238;2022-10-17T03:14:30;11.18;;;9.23;;
14526;SDS011;7350;51.208;4.238;2022-10-17T03:16:57;11.77;;;9.57;;
14526;SDS011;7350;51.208;4.238;2022-10-17T03:19:24;13.07;;;9.18;;
14526;SDS011;7350;51.208;4.238;2022-10-17T03:21:52;10.27;;;9.15;;
14526;SDS011;7350;51.208;4.238;2022-10-17T03:24:19;11.00;;;8.52;;
14526;SDS011;7350;51.208;4.238;2022-10-17T03:26:46;12.05;;;9.15;;
14526;SDS011;7350;51.208;4.238;2022-10-17T03:29:13;10.88;;;8.65;;
14526;SDS011;7350;51.208;4.238;2022-10-17T03:31:40;12.05;;;8.60;;
14526;SDS011;7350;51.208;4.238;2022-10-17T03:34:06;9.63;;;7.65;;
14526;SDS011;7350;51.208;4.238;2022-10-17T03:36:33;9.82;;;8.30;;
14526;SDS011;7350;51.208;4.238;2022-10-17T03:39:02;11.30;;;7.70;;
14526;SDS011;7350;51.208;4.238;2022-10-17T03:41:29;13.05;;;8.23;;
14526;SDS011;7350;51.208;4.238;2022-10-17T03:43:56;8.98;;;8.07;;
14526;SDS011;7350;51.208;4.238;2022-10-17T03:46:22;11.05;;;8.13;;
14526;SDS011;7350;51.208;4.238;2022-10-17T03:48:49;9.18;;;8.07;;
14526;SDS011;7350;51.208;4.238;2022-10-17T03:51:16;9.02;;;7.45;;
14526;SDS011;7350;51.208;4.238;2022-10-17T03:53:44;10.90;;;7.53;;
14526;SDS011;7350;51.208;4.238;2022-10-17T03:56:13;10.27;;;7.90;;
14526;SDS011;7350;51.208;4.238;2022-10-17T03:58:42;9.85;;;7.43;;
14526;SDS011;7350;51.208;4.238;2022-10-17T04:01:09;9.25;;;6.72;;
14526;SDS011;7350;51.208;4.238;2022-10-17T04:03:38;8.95;;;8.05;;
14526;SDS011;7350;51.208;4.238;2022-10-17T04:06:06;10.60;;;6.78;;
14526;SDS011;7350;51.208;4.238;2022-10-17T04:08:33;9.13;;;6.68;;
14526;SDS011;7350;51.208;4.238;2022-10-17T04:11:00;8.23;;;6.43;;
14526;SDS011;7350;51.208;4.238;2022-10-17T04:13:30;7.95;;;6.40;;
14526;SDS011;7350;51.208;4.238;2022-10-17T04:15:58;7.43;;;6.35;;
14526;SDS011;7350;51.208;4.238;2022-10-17T04:18:27;9.07;;;6.97;;
14526;SDS011;7350;51.208;4.238;2022-10-17T04:20:54;9.45;;;7.22;;
14526;SDS011;7350;51.208;4.238;2022-10-17T04:23:21;9.88;;;7.53;;
14526;SDS011;7350;51.208;4.238;2022-10-17T04:25:54;9.63;;;7.00;;
14526;SDS011;7350;51.208;4.238;2022-10-17T04:28:21;9.02;;;6.75;;
14526;SDS011;7350;51.208;4.238;2022-10-17T04:30:55;8.30;;;6.65;;
14526;SDS011;7350;51.208;4.238;2022-10-17T04:33:22;7.20;;;6.47;;
14526;SDS011;7350;51.208;4.238;2022-10-17T04:35:54;10.50;;;6.90;;
14526;SDS011;7350;51.208;4.238;2022-10-17T04:38:22;9.40;;;6.78;;
14526;SDS011;7350;51.208;4.238;2022-10-17T04:40:48;11.40;;;6.40;;
14526;SDS011;7350;51.208;4.238;2022-10-17T04:43:15;10.75;;;6.97;;
14526;SDS011;7350;51.208;4.238;2022-10-17T04:45:42;7.82;;;6.70;;
14526;SDS011;7350;51.208;4.238;2022-10-17T04:48:10;8.98;;;6.53;;
14526;SDS011;7350;51.208;4.238;2022-10-17T04:50:37;10.27;;;6.25;;
14526;SDS011;7350;51.208;4.238;2022-10-17T04:53:04;12.07;;;6.28;;
14526;SDS011;7350;51.208;4.238;2022-10-17T04:55:35;7.65;;;6.15;;
14526;SDS011;7350;51.208;4.238;2022-10-17T04:58:03;9.10;;;6.13;;
14526;SDS011;7350;51.208;4.238;2022-10-17T05:00:30;9.18;;;6.53;;
14526;SDS011;7350;51.208;4.238;2022-10-17T05:02:57;8.55;;;5.97;;
14526;SDS011;7350;51.208;4.238;2022-10-17T05:05:25;9.50;;;6.05;;
14526;SDS011;7350;51.208;4.238;2022-10-17T05:07:52;8.45;;;6.07;;
14526;SDS011;7350;51.208;4.238;2022-10-17T05:10:19;10.50;;;6.60;;
14526;SDS011;7350;51.208;4.238;2022-10-17T05:12:46;8.40;;;5.95;;
14526;SDS011;7350;51.208;4.238;2022-10-17T05:15:13;6.40;;;5.60;;
14526;SDS011;7350;51.208;4.238;2022-10-17T05:17:40;8.82;;;6.60;;
14526;SDS011;7350;51.208;4.238;2022-10-17T05:20:07;7.80;;;6.32;;
14526;SDS011;7350;51.208;4.238;2022-10-17T05:22:36;10.20;;;6.55;;
14526;SDS011;7350;51.208;4.238;2022-10-17T05:25:05;8.70;;;5.85;;
14526;SDS011;7350;51.208;4.238;2022-10-17T05:27:32;9.00;;;6.13;;
14526;SDS011;7350;51.208;4.238;2022-10-17T05:29:59;8.38;;;6.38;;
14526;SDS011;7350;51.208;4.238;2022-10-17T05:32:26;9.18;;;6.63;;
14526;SDS011;7350;51.208;4.238;2022-10-17T05:34:53;8.15;;;6.07;;
14526;SDS011;7350;51.208;4.238;2022-10-17T05:37:20;6.97;;;6.10;;
14526;SDS011;7350;51.208;4.238;2022-10-17T05:39:48;9.20;;;6.35;;
14526;SDS011;7350;51.208;4.238;2022-10-17T05:42:15;6.80;;;5.50;;
14526;SDS011;7350;51.208;4.238;2022-10-17T05:44:42;9.82;;;7.30;;
14526;SDS011;7350;51.208;4.238;2022-10-17T05:47:09;9.20;;;6.72;;
14526;SDS011;7350;51.208;4.238;2022-10-17T05:49:36;8.07;;;6.25;;
14526;SDS011;7350;51.208;4.238;2022-10-17T05:52:03;8.60;;;5.93;;
14526;SDS011;7350;51.208;4.238;2022-10-17T05:54:30;7.85;;;6.35;;
14526;SDS011;7350;51.208;4.238;2022-10-17T05:56:58;8.70;;;6.20;;
14526;SDS011;7350;51.208;4.238;2022-10-17T05:59:25;7.97;;;7.18;;
14526;SDS011;7350;51.208;4.238;2022-10-17T06:01:53;8.52;;;6.65;;
14526;SDS011;7350;51.208;4.238;2022-10-17T06:04:20;6.82;;;6.13;;
14526;SDS011;7350;51.208;4.238;2022-10-17T06:06:47;10.20;;;6.40;;
14526;SDS011;7350;51.208;4.238;2022-10-17T06:09:14;7.30;;;6.63;;
14526;SDS011;7350;51.208;4.238;2022-10-17T06:11:41;8.98;;;6.13;;
14526;SDS011;7350;51.208;4.238;2022-10-17T06:14:09;10.63;;;6.95;;
14526;SDS011;7350;51.208;4.238;2022-10-17T06:16:36;8.70;;;6.32;;
14526;SDS011;7350;51.208;4.238;2022-10-17T06:19:03;7.57;;;6.10;;
14526;SDS011;7350;51.208;4.238;2022-10-17T06:21:30;8.38;;;6.60;;
14526;SDS011;7350;51.208;4.238;2022-10-17T06:24:00;9.20;;;6.45;;
14526;SDS011;7350;51.208;4.238;2022-10-17T06:26:27;8.77;;;7.18;;
14526;SDS011;7350;51.208;4.238;2022-10-17T06:28:54;8.27;;;6.05;;
14526;SDS011;7350;51.208;4.238;2022-10-17T06:31:22;8.80;;;6.15;;
14526;SDS011;7350;51.208;4.238;2022-10-17T06:33:49;9.45;;;6.90;;
14526;SDS011;7350;51.208;4.238;2022-10-17T06:36:16;11.10;;;6.22;;
14526;SDS011;7350;51.208;4.238;2022-10-17T06:38:44;9.95;;;6.80;;
14526;SDS011;7350;51.208;4.238;2022-10-17T06:41:11;8.90;;;6.25;;
14526;SDS011;7350;51.208;4.238;2022-10-17T06:43:39;7.30;;;6.20;;
14526;SDS011;7350;51.208;4.238;2022-10-17T06:46:10;8.77;;;6.57;;
14526;SDS011;7350;51.208;4.238;2022-10-17T06:48:39;11.43;;;7.35;;
14526;SDS011;7350;51.208;4.238;2022-10-17T06:51:06;12.40;;;8.07;;
14526;SDS011;7350;51.208;4.238;2022-10-17T06:53:35;13.50;;;8.30;;
14526;SDS011;7350;51.208;4.238;2022-10-17T06:56:03;13.50;;;7.88;;
14526;SDS011;7350;51.208;4.238;2022-10-17T06:58:32;12.95;;;8.82;;
14526;SDS011;7350;51.208;4.238;2022-10-17T07:01:01;13.30;;;8.77;;
14526;SDS011;7350;51.208;4.238;2022-10-17T07:03:30;12.10;;;8.75;;
14526;SDS011;7350;51.208;4.238;2022-10-17T07:05:58;11.05;;;8.30;;
14526;SDS011;7350;51.208;4.238;2022-10-17T07:08:26;11.50;;;8.18;;
14526;SDS011;7350;51.208;4.238;2022-10-17T07:10:53;10.40;;;9.25;;
14526;SDS011;7350;51.208;4.238;2022-10-17T07:13:21;13.07;;;9.07;;
14526;SDS011;7350;51.208;4.238;2022-10-17T07:15:49;10.70;;;9.30;;
14526;SDS011;7350;51.208;4.238;2022-10-17T07:18:16;15.65;;;9.65;;
14526;SDS011;7350;51.208;4.238;2022-10-17T07:20:43;13.25;;;8.73;;
14526;SDS011;7350;51.208;4.238;2022-10-17T07:23:19;12.10;;;9.32;;
14526;SDS011;7350;51.208;4.238;2022-10-17T07:25:46;9.90;;;8.60;;
14526;SDS011;7350;51.208;4.238;2022-10-17T07:28:13;11.95;;;8.25;;
14526;SDS011;7350;51.208;4.238;2022-10-17T07:30:41;10.93;;;8.90;;
14526;SDS011;7350;51.208;4.238;2022-10-17T07:33:08;12.20;;;9.48;;
14526;SDS011;7350;51.208;4.238;2022-10-17T07:35:36;14.93;;;9.55;;
14526;SDS011;7350;51.208;4.238;2022-10-17T07:38:04;13.65;;;10.10;;
14526;SDS011;7350;51.208;4.238;2022-10-17T07:40:33;14.32;;;10.32;;
14526;SDS011;7350;51.208;4.238;2022-10-17T07:43:00;11.63;;;10.07;;
14526;SDS011;7350;51.208;4.238;2022-10-17T07:45:27;11.70;;;10.15;;
14526;SDS011;7350;51.208;4.238;2022-10-17T07:47:54;16.17;;;10.48;;
14526;SDS011;7350;51.208;4.238;2022-10-17T07:50:22;12.07;;;10.52;;
14526;SDS011;7350;51.208;4.238;2022-10-17T07:52:49;11.88;;;9.73;;
14526;SDS011;7350;51.208;4.238;2022-10-17T07:55:16;11.20;;;9.00;;
14526;SDS011;7350;51.208;4.238;2022-10-17T07:57:44;10.50;;;9.40;;
14526;SDS011;7350;51.208;4.238;2022-10-17T08:00:11;12.88;;;10.05;;
14526;SDS011;7350;51.208;4.238;2022-10-17T08:02:38;13.70;;;9.10;;
14526;SDS011;7350;51.208;4.238;2022-10-17T08:05:06;10.85;;;8.68;;
14526;SDS011;7350;51.208;4.238;2022-10-17T08:07:33;11.70;;;9.27;;
14526;SDS011;7350;51.208;4.238;2022-10-17T08:10:00;9.98;;;8.90;;
14526;SDS011;7350;51.208;4.238;2022-10-17T08:12:27;10.63;;;8.65;;
14526;SDS011;7350;51.208;4.238;2022-10-17T08:14:57;10.07;;;8.13;;
14526;SDS011;7350;51.208;4.238;2022-10-17T08:17:24;9.57;;;8.57;;
14526;SDS011;7350;51.208;4.238;2022-10-17T08:19:51;11.60;;;7.88;;
14526;SDS011;7350;51.208;4.238;2022-10-17T08:22:18;10.90;;;8.40;;
14526;SDS011;7350;51.208;4.238;2022-10-17T08:24:45;10.07;;;7.85;;
14526;SDS011;7350;51.208;4.238;2022-10-17T08:27:12;11.30;;;7.28;;
14526;SDS011;7350;51.208;4.238;2022-10-17T08:29:45;8.73;;;7.70;;
14526;SDS011;7350;51.208;4.238;2022-10-17T08:32:18;8.23;;;7.22;;
14526;SDS011;7350;51.208;4.238;2022-10-17T08:34:45;10.55;;;7.50;;
14526;SDS011;7350;51.208;4.238;2022-10-17T08:37:12;8.98;;;7.72;;
14526;SDS011;7350;51.208;4.238;2022-10-17T08:39:39;9.80;;;7.78;;
14526;SDS011;7350;51.208;4.238;2022-10-17T08:42:16;12.38;;;8.10;;
14526;SDS011;7350;51.208;4.238;2022-10-17T08:44:56;8.27;;;7.00;;
14526;SDS011;7350;51.208;4.238;2022-10-17T08:47:33;9.18;;;6.93;;
14526;SDS011;7350;51.208;4.238;2022-10-17T08:50:03;9.60;;;7.20;;
14526;SDS011;7350;51.208;4.238;2022-10-17T08:52:34;11.57;;;7.38;;
14526;SDS011;7350;51.208;4.238;2022-10-17T08:55:08;8.32;;;6.78;;
14526;SDS011;7350;51.208;4.238;2022-10-17T08:57:40;8.00;;;6.25;;
14526;SDS011;7350;51.208;4.238;2022-10-17T09:02:45;7.47;;;6.45;;
14526;SDS011;7350;51.208;4.238;2022-10-17T09:05:27;8.85;;;6.30;;
14526;SDS011;7350;51.208;4.238;2022-10-17T09:08:02;6.45;;;5.78;;
14526;SDS011;7350;51.208;4.238;2022-10-17T09:10:38;7.03;;;5.75;;
14526;SDS011;7350;51.208;4.238;2022-10-17T09:13:15;9.68;;;6.32;;
14526;SDS011;7350;51.208;4.238;2022-10-17T09:15:54;6.93;;;5.70;;
14526;SDS011;7350;51.208;4.238;2022-10-17T09:18:34;8.45;;;6.28;;
14526;SDS011;7350;51.208;4.238;2022-10-17T09:21:08;11.93;;;7.30;;
14526;SDS011;7350;51.208;4.238;2022-10-17T09:23:43;12.00;;;8.00;;
14526;SDS011;7350;51.208;4.238;2022-10-17T09:26:13;8.38;;;5.40;;
14526;SDS011;7350;51.208;4.238;2022-10-17T09:28:41;8.13;;;6.65;;
14526;SDS011;7350;51.208;4.238;2022-10-17T09:31:11;6.50;;;5.63;;
14526;SDS011;7350;51.208;4.238;2022-10-17T09:33:43;7.78;;;5.47;;
14526;SDS011;7350;51.208;4.238;2022-10-17T09:36:12;6.45;;;5.85;;
14526;SDS011;7350;51.208;4.238;2022-10-17T09:38:42;7.40;;;5.75;;
14526;SDS011;7350;51.208;4.238;2022-10-17T09:41:14;6.63;;;5.57;;
14526;SDS011;7350;51.208;4.238;2022-10-17T09:43:44;6.72;;;5.70;;
14526;SDS011;7350;51.208;4.238;2022-10-17T09:46:12;8.57;;;5.82;;
14526;SDS011;7350;51.208;4.238;2022-10-17T09:48:47;8.13;;;6.00;;
14526;SDS011;7350;51.208;4.238;2022-10-17T09:51:19;9.25;;;5.63;;
14526;SDS011;7350;51.208;4.238;2022-10-17T09:53:47;9.82;;;6.00;;
14526;SDS011;7350;51.208;4.238;2022-10-17T09:56:18;8.23;;;6.22;;
14526;SDS011;7350;51.208;4.238;2022-10-17T09:58:46;8.35;;;5.43;;
14526;SDS011;7350;51.208;4.238;2022-10-17T10:01:15;9.00;;;6.20;;
14526;SDS011;7350;51.208;4.238;2022-10-17T10:03:44;7.72;;;6.65;;
14526;SDS011;7350;51.208;4.238;2022-10-17T10:06:13;8.73;;;6.30;;
14526;SDS011;7350;51.208;4.238;2022-10-17T10:08:49;7.45;;;5.60;;
14526;SDS011;7350;51.208;4.238;2022-10-17T10:11:17;7.32;;;5.38;;
14526;SDS011;7350;51.208;4.238;2022-10-17T10:13:48;7.97;;;5.70;;
14526;SDS011;7350;51.208;4.238;2022-10-17T10:16:19;8.60;;;6.05;;
14526;SDS011;7350;51.208;4.238;2022-10-17T10:18:50;7.97;;;5.95;;
14526;SDS011;7350;51.208;4.238;2022-10-17T10:21:19;7.35;;;5.63;;
14526;SDS011;7350;51.208;4.238;2022-10-17T10:24:04;8.45;;;5.80;;
14526;SDS011;7350;51.208;4.238;2022-10-17T10:26:37;8.52;;;5.50;;
14526;SDS011;7350;51.208;4.238;2022-10-17T10:29:15;7.97;;;5.85;;
14526;SDS011;7350;51.208;4.238;2022-10-17T10:31:46;8.30;;;5.95;;
14526;SDS011;7350;51.208;4.238;2022-10-17T10:34:16;9.50;;;6.15;;
14526;SDS011;7350;51.208;4.238;2022-10-17T10:36:56;10.00;;;6.30;;
14526;SDS011;7350;51.208;4.238;2022-10-17T10:39:33;8.05;;;6.55;;
14526;SDS011;7350;51.208;4.238;2022-10-17T10:42:05;7.18;;;6.47;;
14526;SDS011;7350;51.208;4.238;2022-10-17T10:44:42;7.38;;;6.68;;
14526;SDS011;7350;51.208;4.238;2022-10-17T10:47:20;8.18;;;6.82;;
14526;SDS011;7350;51.208;4.238;2022-10-17T10:49:49;9.77;;;6.78;;
14526;SDS011;7350;51.208;4.238;2022-10-17T10:52:22;9.50;;;6.38;;
14526;SDS011;7350;51.208;4.238;2022-10-17T10:54:56;8.30;;;6.78;;
14526;SDS011;7350;51.208;4.238;2022-10-17T10:57:30;11.25;;;6.70;;
14526;SDS011;7350;51.208;4.238;2022-10-17T11:00:02;8.32;;;6.53;;
14526;SDS011;7350;51.208;4.238;2022-10-17T11:02:37;10.90;;;5.65;;
14526;SDS011;7350;51.208;4.238;2022-10-17T11:05:11;6.75;;;5.95;;
14526;SDS011;7350;51.208;4.238;2022-10-17T11:07:45;6.10;;;5.50;;
14526;SDS011;7350;51.208;4.238;2022-10-17T11:10:21;6.65;;;5.10;;
14526;SDS011;7350;51.208;4.238;2022-10-17T11:12:53;5.43;;;4.85;;
14526;SDS011;7350;51.208;4.238;2022-10-17T11:15:30;7.78;;;5.32;;
14526;SDS011;7350;51.208;4.238;2022-10-17T11:18:02;8.10;;;5.10;;
14526;SDS011;7350;51.208;4.238;2022-10-17T11:20:33;5.40;;;4.65;;
14526;SDS011;7350;51.208;4.238;2022-10-17T11:23:15;8.00;;;5.20;;
14526;SDS011;7350;51.208;4.238;2022-10-17T11:25:46;5.65;;;4.57;;
14526;SDS011;7350;51.208;4.238;2022-10-17T11:28:15;5.53;;;4.80;;
14526;SDS011;7350;51.208;4.238;2022-10-17T11:30:45;6.40;;;4.07;;
14526;SDS011;7350;51.208;4.238;2022-10-17T11:33:16;5.80;;;4.30;;
14526;SDS011;7350;51.208;4.238;2022-10-17T11:35:50;6.22;;;4.22;;
14526;SDS011;7350;51.208;4.238;2022-10-17T11:38:31;8.10;;;4.10;;
14526;SDS011;7350;51.208;4.238;2022-10-17T11:41:04;4.47;;;4.07;;
14526;SDS011;7350;51.208;4.238;2022-10-17T11:43:36;6.45;;;4.70;;
14526;SDS011;7350;51.208;4.238;2022-10-17T11:46:11;6.03;;;3.88;;
14526;SDS011;7350;51.208;4.238;2022-10-17T11:48:43;4.55;;;4.05;;
14526;SDS011;7350;51.208;4.238;2022-10-17T11:51:16;5.45;;;4.38;;
14526;SDS011;7350;51.208;4.238;2022-10-17T11:53:46;7.05;;;4.50;;
14526;SDS011;7350;51.208;4.238;2022-10-17T11:56:18;6.70;;;4.43;;
14526;SDS011;7350;51.208;4.238;2022-10-17T11:58:53;5.60;;;4.10;;
14526;SDS011;7350;51.208;4.238;2022-10-17T12:01:29;5.97;;;4.63;;
14526;SDS011;7350;51.208;4.238;2022-10-17T12:04:06;7.47;;;4.20;;
14526;SDS011;7350;51.208;4.238;2022-10-17T12:06:46;6.95;;;5.13;;
14526;SDS011;7350;51.208;4.238;2022-10-17T12:09:24;6.88;;;4.70;;
14526;SDS011;7350;51.208;4.238;2022-10-17T12:11:58;6.32;;;4.80;;
14526;SDS011;7350;51.208;4.238;2022-10-17T12:14:33;6.93;;;5.22;;
14526;SDS011;7350;51.208;4.238;2022-10-17T12:17:05;7.78;;;5.80;;
14526;SDS011;7350;51.208;4.238;2022-10-17T12:22:55;6.90;;;5.53;;
14526;SDS011;7350;51.208;4.238;2022-10-17T12:25:26;7.60;;;5.68;;
14526;SDS011;7350;51.208;4.238;2022-10-17T12:28:02;7.95;;;5.60;;
14526;SDS011;7350;51.208;4.238;2022-10-17T12:30:51;7.35;;;5.85;;
14526;SDS011;7350;51.208;4.238;2022-10-17T12:33:26;7.07;;;5.55;;
14526;SDS011;7350;51.208;4.238;2022-10-17T12:42:42;8.02;;;5.95;;
14526;SDS011;7350;51.208;4.238;2022-10-17T12:51:26;10.10;;;6.20;;
14526;SDS011;7350;51.208;4.238;2022-10-17T12:53:56;7.50;;;5.72;;
14526;SDS011;7350;51.208;4.238;2022-10-17T12:56:33;9.48;;;6.07;;
14526;SDS011;7350;51.208;4.238;2022-10-17T12:59:06;8.20;;;6.07;;
14526;SDS011;7350;51.208;4.238;2022-10-17T13:01:35;9.15;;;6.30;;
14526;SDS011;7350;51.208;4.238;2022-10-17T13:04:04;7.22;;;5.82;;
14526;SDS011;7350;51.208;4.238;2022-10-17T13:06:35;7.28;;;5.97;;
14526;SDS011;7350;51.208;4.238;2022-10-17T13:09:14;7.47;;;6.70;;
14526;SDS011;7350;51.208;4.238;2022-10-17T13:11:45;10.15;;;6.97;;
14526;SDS011;7350;51.208;4.238;2022-10-17T13:14:17;7.68;;;6.40;;
14526;SDS011;7350;51.208;4.238;2022-10-17T13:16:50;9.40;;;7.60;;
14526;SDS011;7350;51.208;4.238;2022-10-17T13:19:18;10.68;;;7.57;;
14526;SDS011;7350;51.208;4.238;2022-10-17T13:21:51;10.38;;;8.05;;
14526;SDS011;7350;51.208;4.238;2022-10-17T13:24:21;9.25;;;6.15;;
14526;SDS011;7350;51.208;4.238;2022-10-17T13:26:49;7.22;;;6.30;;
14526;SDS011;7350;51.208;4.238;2022-10-17T13:29:17;6.32;;;5.70;;
14526;SDS011;7350;51.208;4.238;2022-10-17T13:31:50;6.50;;;5.60;;
14526;SDS011;7350;51.208;4.238;2022-10-17T13:34:21;8.52;;;6.13;;
14526;SDS011;7350;51.208;4.238;2022-10-17T13:36:50;7.07;;;5.63;;
14526;SDS011;7350;51.208;4.238;2022-10-17T13:39:20;7.72;;;5.70;;
14526;SDS011;7350;51.208;4.238;2022-10-17T13:41:49;7.47;;;5.60;;
14526;SDS011;7350;51.208;4.238;2022-10-17T13:44:19;9.63;;;5.75;;
14526;SDS011;7350;51.208;4.238;2022-10-17T13:46:48;6.60;;;5.35;;
14526;SDS011;7350;51.208;4.238;2022-10-17T13:49:16;6.90;;;5.35;;
14526;SDS011;7350;51.208;4.238;2022-10-17T13:51:46;6.47;;;5.75;;
14526;SDS011;7350;51.208;4.238;2022-10-17T13:54:17;7.18;;;5.55;;
14526;SDS011;7350;51.208;4.238;2022-10-17T13:56:54;7.50;;;5.38;;
14526;SDS011;7350;51.208;4.238;2022-10-17T13:59:23;8.23;;;5.35;;
14526;SDS011;7350;51.208;4.238;2022-10-17T14:01:53;8.57;;;5.18;;
14526;SDS011;7350;51.208;4.238;2022-10-17T14:04:20;7.88;;;4.70;;
14526;SDS011;7350;51.208;4.238;2022-10-17T14:06:47;7.18;;;4.88;;
14526;SDS011;7350;51.208;4.238;2022-10-17T14:09:16;6.28;;;4.32;;
14526;SDS011;7350;51.208;4.238;2022-10-17T14:11:55;7.40;;;4.78;;
14526;SDS011;7350;51.208;4.238;2022-10-17T14:14:27;7.35;;;4.90;;
14526;SDS011;7350;51.208;4.238;2022-10-17T14:16:55;6.25;;;4.53;;
14526;SDS011;7350;51.208;4.238;2022-10-17T14:19:23;9.90;;;6.30;;
14526;SDS011;7350;51.208;4.238;2022-10-17T14:21:52;7.93;;;4.50;;
14526;SDS011;7350;51.208;4.238;2022-10-17T14:24:28;9.63;;;4.85;;
14526;SDS011;7350;51.208;4.238;2022-10-17T14:26:57;8.38;;;4.60;;
14526;SDS011;7350;51.208;4.238;2022-10-17T14:29:27;9.95;;;4.97;;
14526;SDS011;7350;51.208;4.238;2022-10-17T14:32:02;6.13;;;4.55;;
14526;SDS011;7350;51.208;4.238;2022-10-17T14:34:33;6.80;;;4.80;;
14526;SDS011;7350;51.208;4.238;2022-10-17T14:37:06;9.15;;;5.22;;
14526;SDS011;7350;51.208;4.238;2022-10-17T14:39:35;9.35;;;4.95;;
14526;SDS011;7350;51.208;4.238;2022-10-17T14:42:02;9.07;;;4.63;;
14526;SDS011;7350;51.208;4.238;2022-10-17T14:44:31;6.40;;;5.05;;
14526;SDS011;7350;51.208;4.238;2022-10-17T14:47:01;8.70;;;5.15;;
14526;SDS011;7350;51.208;4.238;2022-10-17T14:49:31;5.93;;;4.78;;
14526;SDS011;7350;51.208;4.238;2022-10-17T14:52:10;6.63;;;4.75;;
14526;SDS011;7350;51.208;4.238;2022-10-17T14:55:12;11.13;;;4.43;;
14526;SDS011;7350;51.208;4.238;2022-10-17T14:57:51;8.40;;;4.88;;
14526;SDS011;7350;51.208;4.238;2022-10-17T15:00:20;5.55;;;4.82;;
14526;SDS011;7350;51.208;4.238;2022-10-17T15:02:48;6.00;;;4.50;;
14526;SDS011;7350;51.208;4.238;2022-10-17T15:05:17;7.40;;;4.70;;
14526;SDS011;7350;51.208;4.238;2022-10-17T15:07:45;11.80;;;4.93;;
14526;SDS011;7350;51.208;4.238;2022-10-17T15:10:23;10.45;;;5.00;;
14526;SDS011;7350;51.208;4.238;2022-10-17T15:12:53;9.55;;;5.05;;
14526;SDS011;7350;51.208;4.238;2022-10-17T15:15:21;12.48;;;5.05;;
14526;SDS011;7350;51.208;4.238;2022-10-17T15:17:48;8.18;;;5.07;;
14526;SDS011;7350;51.208;4.238;2022-10-17T15:20:16;9.15;;;4.82;;
14526;SDS011;7350;51.208;4.238;2022-10-17T15:22:44;10.27;;;5.18;;
14526;SDS011;7350;51.208;4.238;2022-10-17T15:25:12;10.27;;;5.43;;
14526;SDS011;7350;51.208;4.238;2022-10-17T15:27:39;7.95;;;4.78;;
14526;SDS011;7350;51.208;4.238;2022-10-17T15:30:10;14.15;;;5.60;;
14526;SDS011;7350;51.208;4.238;2022-10-17T15:32:45;11.27;;;5.00;;
14526;SDS011;7350;51.208;4.238;2022-10-17T15:35:13;8.68;;;5.30;;
14526;SDS011;7350;51.208;4.238;2022-10-17T15:37:41;7.85;;;5.10;;
14526;SDS011;7350;51.208;4.238;2022-10-17T15:40:12;7.55;;;5.43;;